sensor_id;sensor_type;location;lat;lon;timestamp;P1;durP1;ratioP1;P2;durP2;ratioP2
48861;SDS011;34681;49.188;-0.374;2022-12-04T00:00:11;34.00;;;26.70;;
48861;SDS011;34681;49.188;-0.374;2022-12-04T00:02:38;33.43;;;24.50;;
48861;SDS011;34681;49.188;-0.374;2022-12-04T00:05:04;30.70;;;25.23;;
48861;SDS011;34681;49.188;-0.374;2022-12-04T00:07:31;33.43;;;28.40;;
48861;SDS011;34681;49.188;-0.374;2022-12-04T00:09:56;38.40;;;28.13;;
48861;SDS011;34681;49.188;-0.374;2022-12-04T00:12:21;35.97;;;26.53;;
48861;SDS011;34681;49.188;-0.374;2022-12-04T00:14:47;33.43;;;25.80;;
48861;SDS011;34681;49.188;-0.374;2022-12-04T00:17:13;45.97;;;27.57;;
48861;SDS011;34681;49.188;-0.374;2022-12-04T00:19:38;33.10;;;26.93;;
48861;SDS011;34681;49.188;-0.374;2022-12-04T00:22:04;32.40;;;26.60;;
48861;SDS011;34681;49.188;-0.374;2022-12-04T00:24:29;37.00;;;27.53;;
48861;SDS011;34681;49.188;-0.374;2022-12-04T00:26:54;39.40;;;30.93;;
48861;SDS011;34681;49.188;-0.374;2022-12-04T00:29:20;33.90;;;26.97;;
48861;SDS011;34681;49.188;-0.374;2022-12-04T00:31:46;37.47;;;28.70;;
48861;SDS011;34681;49.188;-0.374;2022-12-04T00:34:11;34.77;;;27.27;;
48861;SDS011;34681;49.188;-0.374;2022-12-04T00:36:37;34.53;;;25.57;;
48861;SDS011;34681;49.188;-0.374;2022-12-04T00:39:02;31.83;;;27.67;;
48861;SDS011;34681;49.188;-0.374;2022-12-04T00:41:29;39.67;;;31.40;;
48861;SDS011;34681;49.188;-0.374;2022-12-04T00:43:56;41.50;;;32.23;;
48861;SDS011;34681;49.188;-0.374;2022-12-04T00:46:22;37.23;;;29.03;;
48861;SDS011;34681;49.188;-0.374;2022-12-04T00:48:48;32.07;;;26.57;;
48861;SDS011;34681;49.188;-0.374;2022-12-04T00:51:16;37.03;;;28.57;;
48861;SDS011;34681;49.188;-0.374;2022-12-04T00:53:44;36.50;;;28.80;;
48861;SDS011;34681;49.188;-0.374;2022-12-04T00:56:14;34.93;;;27.33;;
48861;SDS011;34681;49.188;-0.374;2022-12-04T00:58:41;34.97;;;28.03;;
48861;SDS011;34681;49.188;-0.374;2022-12-04T01:01:08;35.60;;;26.67;;
48861;SDS011;34681;49.188;-0.374;2022-12-04T01:03:35;35.50;;;28.90;;
48861;SDS011;34681;49.188;-0.374;2022-12-04T01:06:01;39.10;;;28.90;;
48861;SDS011;34681;49.188;-0.374;2022-12-04T01:08:28;38.40;;;28.33;;
48861;SDS011;34681;49.188;-0.374;2022-12-04T01:10:53;28.43;;;24.10;;
48861;SDS011;34681;49.188;-0.374;2022-12-04T01:13:19;33.27;;;27.30;;
48861;SDS011;34681;49.188;-0.374;2022-12-04T01:15:45;32.90;;;27.10;;
48861;SDS011;34681;49.188;-0.374;2022-12-04T01:18:11;34.50;;;28.30;;
48861;SDS011;34681;49.188;-0.374;2022-12-04T01:20:37;35.10;;;28.80;;
48861;SDS011;34681;49.188;-0.374;2022-12-04T01:23:03;40.63;;;30.70;;
48861;SDS011;34681;49.188;-0.374;2022-12-04T01:25:29;36.77;;;28.90;;
48861;SDS011;34681;49.188;-0.374;2022-12-04T01:27:54;34.63;;;28.07;;
48861;SDS011;34681;49.188;-0.374;2022-12-04T01:30:20;38.43;;;29.53;;
48861;SDS011;34681;49.188;-0.374;2022-12-04T01:32:45;36.30;;;27.97;;
48861;SDS011;34681;49.188;-0.374;2022-12-04T01:35:10;38.57;;;29.20;;
48861;SDS011;34681;49.188;-0.374;2022-12-04T01:37:36;33.67;;;27.47;;
48861;SDS011;34681;49.188;-0.374;2022-12-04T01:40:02;35.73;;;26.60;;
48861;SDS011;34681;49.188;-0.374;2022-12-04T01:42:28;28.90;;;24.03;;
48861;SDS011;34681;49.188;-0.374;2022-12-04T01:50:43;30.23;;;25.53;;
48861;SDS011;34681;49.188;-0.374;2022-12-04T01:53:12;34.83;;;29.40;;
48861;SDS011;34681;49.188;-0.374;2022-12-04T01:55:38;37.33;;;30.47;;
48861;SDS011;34681;49.188;-0.374;2022-12-04T01:58:05;35.03;;;28.07;;
48861;SDS011;34681;49.188;-0.374;2022-12-04T02:00:31;38.30;;;29.50;;
48861;SDS011;34681;49.188;-0.374;2022-12-04T02:02:56;35.10;;;26.00;;
48861;SDS011;34681;49.188;-0.374;2022-12-04T02:05:22;34.40;;;27.90;;
48861;SDS011;34681;49.188;-0.374;2022-12-04T02:07:48;37.90;;;29.87;;
48861;SDS011;34681;49.188;-0.374;2022-12-04T02:10:16;36.23;;;28.33;;
48861;SDS011;34681;49.188;-0.374;2022-12-04T02:15:39;33.50;;;26.60;;
48861;SDS011;34681;49.188;-0.374;2022-12-04T02:20:58;35.20;;;27.37;;
48861;SDS011;34681;49.188;-0.374;2022-12-04T02:23:58;32.07;;;25.27;;
48861;SDS011;34681;49.188;-0.374;2022-12-04T02:26:40;32.00;;;26.30;;
48861;SDS011;34681;49.188;-0.374;2022-12-04T02:29:25;35.90;;;27.63;;
48861;SDS011;34681;49.188;-0.374;2022-12-04T02:37:34;36.33;;;28.93;;
48861;SDS011;34681;49.188;-0.374;2022-12-04T02:40:06;35.40;;;27.10;;
48861;SDS011;34681;49.188;-0.374;2022-12-04T02:42:43;33.00;;;24.43;;
48861;SDS011;34681;49.188;-0.374;2022-12-04T02:45:15;29.67;;;23.57;;
48861;SDS011;34681;49.188;-0.374;2022-12-04T02:47:47;36.00;;;29.17;;
48861;SDS011;34681;49.188;-0.374;2022-12-04T02:50:16;32.50;;;26.27;;
48861;SDS011;34681;49.188;-0.374;2022-12-04T02:52:47;34.10;;;26.70;;
48861;SDS011;34681;49.188;-0.374;2022-12-04T02:55:24;32.40;;;25.17;;
48861;SDS011;34681;49.188;-0.374;2022-12-04T02:57:55;33.43;;;25.83;;
48861;SDS011;34681;49.188;-0.374;2022-12-04T03:00:24;32.70;;;26.93;;
48861;SDS011;34681;49.188;-0.374;2022-12-04T03:05:31;32.63;;;27.03;;
48861;SDS011;34681;49.188;-0.374;2022-12-04T03:08:04;29.83;;;25.00;;
48861;SDS011;34681;49.188;-0.374;2022-12-04T03:10:38;36.43;;;29.07;;
48861;SDS011;34681;49.188;-0.374;2022-12-04T03:13:14;36.00;;;26.03;;
48861;SDS011;34681;49.188;-0.374;2022-12-04T03:15:47;34.10;;;29.47;;
48861;SDS011;34681;49.188;-0.374;2022-12-04T03:21:03;35.60;;;26.33;;
48861;SDS011;34681;49.188;-0.374;2022-12-04T03:23:38;36.50;;;28.47;;
48861;SDS011;34681;49.188;-0.374;2022-12-04T03:26:17;37.70;;;29.50;;
48861;SDS011;34681;49.188;-0.374;2022-12-04T03:31:34;38.50;;;29.40;;
48861;SDS011;34681;49.188;-0.374;2022-12-04T03:34:01;33.87;;;26.80;;
48861;SDS011;34681;49.188;-0.374;2022-12-04T03:36:31;35.70;;;29.17;;
48861;SDS011;34681;49.188;-0.374;2022-12-04T03:39:10;36.50;;;26.97;;
48861;SDS011;34681;49.188;-0.374;2022-12-04T03:42:00;34.77;;;27.80;;
48861;SDS011;34681;49.188;-0.374;2022-12-04T03:44:40;36.83;;;27.33;;
48861;SDS011;34681;49.188;-0.374;2022-12-04T03:47:13;39.47;;;28.77;;
48861;SDS011;34681;49.188;-0.374;2022-12-04T03:49:46;37.50;;;27.87;;
48861;SDS011;34681;49.188;-0.374;2022-12-04T03:55:12;39.63;;;31.30;;
48861;SDS011;34681;49.188;-0.374;2022-12-04T03:57:45;45.07;;;30.87;;
48861;SDS011;34681;49.188;-0.374;2022-12-04T04:00:15;40.17;;;30.50;;
48861;SDS011;34681;49.188;-0.374;2022-12-04T04:02:44;40.27;;;30.53;;
48861;SDS011;34681;49.188;-0.374;2022-12-04T04:05:14;39.57;;;28.33;;
48861;SDS011;34681;49.188;-0.374;2022-12-04T04:07:47;37.60;;;30.70;;
48861;SDS011;34681;49.188;-0.374;2022-12-04T04:10:21;39.93;;;30.10;;
48861;SDS011;34681;49.188;-0.374;2022-12-04T04:12:59;37.63;;;29.53;;
48861;SDS011;34681;49.188;-0.374;2022-12-04T04:15:49;33.70;;;26.07;;
48861;SDS011;34681;49.188;-0.374;2022-12-04T04:18:37;39.43;;;31.00;;
48861;SDS011;34681;49.188;-0.374;2022-12-04T04:21:24;37.17;;;30.07;;
48861;SDS011;34681;49.188;-0.374;2022-12-04T04:24:26;35.93;;;26.77;;
48861;SDS011;34681;49.188;-0.374;2022-12-04T04:26:54;34.60;;;27.33;;
48861;SDS011;34681;49.188;-0.374;2022-12-04T04:29:22;40.90;;;29.00;;
48861;SDS011;34681;49.188;-0.374;2022-12-04T04:31:50;36.93;;;27.47;;
48861;SDS011;34681;49.188;-0.374;2022-12-04T04:34:30;35.83;;;26.97;;
48861;SDS011;34681;49.188;-0.374;2022-12-04T04:39:49;34.17;;;25.30;;
48861;SDS011;34681;49.188;-0.374;2022-12-04T04:42:40;37.07;;;28.10;;
48861;SDS011;34681;49.188;-0.374;2022-12-04T04:45:14;39.27;;;28.47;;
48861;SDS011;34681;49.188;-0.374;2022-12-04T04:47:46;36.00;;;25.70;;
48861;SDS011;34681;49.188;-0.374;2022-12-04T04:50:16;33.77;;;25.57;;
48861;SDS011;34681;49.188;-0.374;2022-12-04T04:52:47;36.03;;;27.63;;
48861;SDS011;34681;49.188;-0.374;2022-12-04T04:55:16;39.00;;;29.43;;
48861;SDS011;34681;49.188;-0.374;2022-12-04T04:57:43;36.20;;;27.00;;
48861;SDS011;34681;49.188;-0.374;2022-12-04T05:00:10;35.47;;;27.00;;
48861;SDS011;34681;49.188;-0.374;2022-12-04T05:02:38;36.40;;;28.40;;
48861;SDS011;34681;49.188;-0.374;2022-12-04T05:05:04;38.70;;;30.50;;
48861;SDS011;34681;49.188;-0.374;2022-12-04T05:07:31;40.37;;;29.50;;
48861;SDS011;34681;49.188;-0.374;2022-12-04T05:09:56;37.90;;;27.60;;
48861;SDS011;34681;49.188;-0.374;2022-12-04T05:12:21;40.20;;;29.37;;
48861;SDS011;34681;49.188;-0.374;2022-12-04T05:14:47;36.23;;;28.33;;
48861;SDS011;34681;49.188;-0.374;2022-12-04T05:17:13;36.20;;;28.67;;
48861;SDS011;34681;49.188;-0.374;2022-12-04T05:19:38;32.90;;;25.37;;
48861;SDS011;34681;49.188;-0.374;2022-12-04T05:24:50;35.20;;;26.97;;
48861;SDS011;34681;49.188;-0.374;2022-12-04T05:27:15;44.53;;;30.20;;
48861;SDS011;34681;49.188;-0.374;2022-12-04T05:29:41;35.20;;;26.10;;
48861;SDS011;34681;49.188;-0.374;2022-12-04T05:32:06;36.13;;;27.27;;
48861;SDS011;34681;49.188;-0.374;2022-12-04T05:34:32;38.77;;;30.60;;
48861;SDS011;34681;49.188;-0.374;2022-12-04T05:36:57;40.97;;;29.93;;
48861;SDS011;34681;49.188;-0.374;2022-12-04T05:39:23;40.70;;;29.70;;
48861;SDS011;34681;49.188;-0.374;2022-12-04T05:41:48;41.50;;;28.67;;
48861;SDS011;34681;49.188;-0.374;2022-12-04T05:44:13;35.13;;;27.27;;
48861;SDS011;34681;49.188;-0.374;2022-12-04T05:46:39;36.07;;;29.23;;
48861;SDS011;34681;49.188;-0.374;2022-12-04T05:49:04;40.50;;;30.00;;
48861;SDS011;34681;49.188;-0.374;2022-12-04T05:51:29;40.90;;;30.40;;
48861;SDS011;34681;49.188;-0.374;2022-12-04T05:53:55;40.40;;;31.67;;
48861;SDS011;34681;49.188;-0.374;2022-12-04T05:56:20;41.63;;;30.47;;
48861;SDS011;34681;49.188;-0.374;2022-12-04T05:58:46;38.93;;;29.47;;
48861;SDS011;34681;49.188;-0.374;2022-12-04T06:01:16;35.80;;;26.20;;
48861;SDS011;34681;49.188;-0.374;2022-12-04T06:03:44;41.10;;;30.10;;
48861;SDS011;34681;49.188;-0.374;2022-12-04T06:06:10;34.77;;;28.87;;
48861;SDS011;34681;49.188;-0.374;2022-12-04T06:08:43;40.40;;;30.43;;
48861;SDS011;34681;49.188;-0.374;2022-12-04T06:11:12;38.23;;;27.93;;
48861;SDS011;34681;49.188;-0.374;2022-12-04T06:13:42;41.03;;;29.57;;
48861;SDS011;34681;49.188;-0.374;2022-12-04T06:16:14;38.90;;;30.17;;
48861;SDS011;34681;49.188;-0.374;2022-12-04T06:18:42;37.93;;;29.93;;
48861;SDS011;34681;49.188;-0.374;2022-12-04T06:21:08;36.80;;;28.10;;
48861;SDS011;34681;49.188;-0.374;2022-12-04T06:23:34;33.77;;;27.47;;
48861;SDS011;34681;49.188;-0.374;2022-12-04T06:26:01;37.97;;;25.30;;
48861;SDS011;34681;49.188;-0.374;2022-12-04T06:28:30;35.17;;;27.13;;
48861;SDS011;34681;49.188;-0.374;2022-12-04T06:30:59;35.70;;;28.10;;
48861;SDS011;34681;49.188;-0.374;2022-12-04T06:33:26;39.30;;;30.37;;
48861;SDS011;34681;49.188;-0.374;2022-12-04T06:36:01;38.80;;;28.53;;
48861;SDS011;34681;49.188;-0.374;2022-12-04T06:38:28;38.77;;;27.50;;
48861;SDS011;34681;49.188;-0.374;2022-12-04T06:40:54;34.00;;;25.30;;
48861;SDS011;34681;49.188;-0.374;2022-12-04T06:43:20;34.13;;;27.20;;
48861;SDS011;34681;49.188;-0.374;2022-12-04T06:45:46;36.00;;;27.20;;
48861;SDS011;34681;49.188;-0.374;2022-12-04T06:48:11;29.87;;;24.57;;
48861;SDS011;34681;49.188;-0.374;2022-12-04T06:50:38;34.37;;;26.37;;
48861;SDS011;34681;49.188;-0.374;2022-12-04T06:53:03;35.00;;;25.43;;
48861;SDS011;34681;49.188;-0.374;2022-12-04T06:55:29;35.77;;;27.50;;
48861;SDS011;34681;49.188;-0.374;2022-12-04T06:57:54;33.33;;;24.40;;
48861;SDS011;34681;49.188;-0.374;2022-12-04T07:00:19;36.10;;;28.77;;
48861;SDS011;34681;49.188;-0.374;2022-12-04T07:02:45;32.53;;;25.00;;
48861;SDS011;34681;49.188;-0.374;2022-12-04T07:05:10;36.47;;;27.30;;
48861;SDS011;34681;49.188;-0.374;2022-12-04T07:07:35;34.43;;;25.90;;
48861;SDS011;34681;49.188;-0.374;2022-12-04T07:10:01;35.40;;;26.50;;
48861;SDS011;34681;49.188;-0.374;2022-12-04T07:12:28;30.87;;;25.33;;
48861;SDS011;34681;49.188;-0.374;2022-12-04T07:14:53;35.00;;;27.63;;
48861;SDS011;34681;49.188;-0.374;2022-12-04T07:17:19;31.33;;;23.70;;
48861;SDS011;34681;49.188;-0.374;2022-12-04T07:19:44;32.17;;;25.50;;
48861;SDS011;34681;49.188;-0.374;2022-12-04T07:22:09;32.73;;;26.10;;
48861;SDS011;34681;49.188;-0.374;2022-12-04T07:24:35;36.30;;;28.10;;
48861;SDS011;34681;49.188;-0.374;2022-12-04T07:27:01;30.37;;;22.97;;
48861;SDS011;34681;49.188;-0.374;2022-12-04T07:29:27;32.00;;;24.27;;
48861;SDS011;34681;49.188;-0.374;2022-12-04T07:31:52;34.20;;;26.40;;
48861;SDS011;34681;49.188;-0.374;2022-12-04T07:34:18;34.90;;;26.83;;
48861;SDS011;34681;49.188;-0.374;2022-12-04T07:36:43;32.87;;;24.10;;
48861;SDS011;34681;49.188;-0.374;2022-12-04T07:39:08;32.77;;;24.57;;
48861;SDS011;34681;49.188;-0.374;2022-12-04T07:41:34;32.17;;;26.63;;
48861;SDS011;34681;49.188;-0.374;2022-12-04T07:43:59;31.10;;;24.70;;
48861;SDS011;34681;49.188;-0.374;2022-12-04T07:46:25;33.73;;;26.73;;
48861;SDS011;34681;49.188;-0.374;2022-12-04T07:48:53;28.50;;;24.03;;
48861;SDS011;34681;49.188;-0.374;2022-12-04T07:51:21;34.20;;;27.20;;
48861;SDS011;34681;49.188;-0.374;2022-12-04T07:53:49;32.83;;;25.67;;
48861;SDS011;34681;49.188;-0.374;2022-12-04T07:56:15;30.10;;;23.60;;
48861;SDS011;34681;49.188;-0.374;2022-12-04T07:58:41;33.93;;;24.40;;
48861;SDS011;34681;49.188;-0.374;2022-12-04T08:03:43;33.17;;;25.70;;
48861;SDS011;34681;49.188;-0.374;2022-12-04T08:06:10;32.43;;;24.70;;
48861;SDS011;34681;49.188;-0.374;2022-12-04T08:08:35;33.03;;;25.57;;
48861;SDS011;34681;49.188;-0.374;2022-12-04T08:11:08;32.57;;;24.60;;
48861;SDS011;34681;49.188;-0.374;2022-12-04T08:13:35;29.37;;;25.40;;
48861;SDS011;34681;49.188;-0.374;2022-12-04T08:16:02;31.17;;;24.33;;
48861;SDS011;34681;49.188;-0.374;2022-12-04T08:18:27;32.37;;;25.40;;
48861;SDS011;34681;49.188;-0.374;2022-12-04T08:20:53;31.40;;;24.53;;
48861;SDS011;34681;49.188;-0.374;2022-12-04T08:23:18;34.43;;;26.23;;
48861;SDS011;34681;49.188;-0.374;2022-12-04T08:25:43;35.90;;;26.43;;
48861;SDS011;34681;49.188;-0.374;2022-12-04T08:28:09;26.77;;;22.93;;
48861;SDS011;34681;49.188;-0.374;2022-12-04T08:30:35;29.07;;;23.87;;
48861;SDS011;34681;49.188;-0.374;2022-12-04T08:33:01;31.57;;;24.37;;
48861;SDS011;34681;49.188;-0.374;2022-12-04T08:35:26;31.37;;;23.40;;
48861;SDS011;34681;49.188;-0.374;2022-12-04T08:37:52;30.50;;;24.53;;
48861;SDS011;34681;49.188;-0.374;2022-12-04T08:40:17;31.40;;;24.20;;
48861;SDS011;34681;49.188;-0.374;2022-12-04T08:42:43;28.73;;;23.10;;
48861;SDS011;34681;49.188;-0.374;2022-12-04T08:45:08;29.13;;;25.27;;
48861;SDS011;34681;49.188;-0.374;2022-12-04T08:47:34;28.60;;;21.73;;
48861;SDS011;34681;49.188;-0.374;2022-12-04T08:49:59;23.57;;;20.77;;
48861;SDS011;34681;49.188;-0.374;2022-12-04T08:52:25;32.53;;;24.80;;
48861;SDS011;34681;49.188;-0.374;2022-12-04T08:54:50;27.57;;;22.97;;
48861;SDS011;34681;49.188;-0.374;2022-12-04T08:57:15;27.73;;;21.40;;
48861;SDS011;34681;49.188;-0.374;2022-12-04T08:59:41;27.97;;;22.33;;
48861;SDS011;34681;49.188;-0.374;2022-12-04T09:02:08;30.87;;;25.37;;
48861;SDS011;34681;49.188;-0.374;2022-12-04T09:04:34;28.93;;;24.27;;
48861;SDS011;34681;49.188;-0.374;2022-12-04T09:06:59;27.13;;;24.10;;
48861;SDS011;34681;49.188;-0.374;2022-12-04T09:09:25;28.57;;;23.30;;
48861;SDS011;34681;49.188;-0.374;2022-12-04T09:11:50;33.33;;;24.80;;
48861;SDS011;34681;49.188;-0.374;2022-12-04T09:14:16;27.90;;;22.00;;
48861;SDS011;34681;49.188;-0.374;2022-12-04T09:16:43;27.97;;;24.13;;
48861;SDS011;34681;49.188;-0.374;2022-12-04T09:19:08;30.33;;;22.67;;
48861;SDS011;34681;49.188;-0.374;2022-12-04T09:21:34;31.70;;;24.37;;
48861;SDS011;34681;49.188;-0.374;2022-12-04T09:24:00;30.87;;;24.03;;
48861;SDS011;34681;49.188;-0.374;2022-12-04T09:26:27;30.90;;;25.10;;
48861;SDS011;34681;49.188;-0.374;2022-12-04T09:28:54;38.37;;;26.70;;
48861;SDS011;34681;49.188;-0.374;2022-12-04T09:31:20;30.40;;;23.87;;
48861;SDS011;34681;49.188;-0.374;2022-12-04T09:33:46;27.00;;;22.00;;
48861;SDS011;34681;49.188;-0.374;2022-12-04T09:36:12;27.43;;;21.47;;
48861;SDS011;34681;49.188;-0.374;2022-12-04T09:38:41;27.53;;;22.07;;
48861;SDS011;34681;49.188;-0.374;2022-12-04T09:46:31;25.90;;;19.00;;
48861;SDS011;34681;49.188;-0.374;2022-12-04T09:48:58;26.50;;;20.63;;
48861;SDS011;34681;49.188;-0.374;2022-12-04T09:51:34;26.47;;;19.97;;
48861;SDS011;34681;49.188;-0.374;2022-12-04T09:54:09;32.67;;;23.77;;
48861;SDS011;34681;49.188;-0.374;2022-12-04T09:56:39;28.10;;;20.47;;
48861;SDS011;34681;49.188;-0.374;2022-12-04T10:01:40;27.30;;;21.73;;
48861;SDS011;34681;49.188;-0.374;2022-12-04T10:04:12;27.10;;;19.47;;
48861;SDS011;34681;49.188;-0.374;2022-12-04T10:06:57;27.83;;;19.43;;
48861;SDS011;34681;49.188;-0.374;2022-12-04T10:09:52;27.80;;;20.37;;
48861;SDS011;34681;49.188;-0.374;2022-12-04T10:21:31;25.40;;;18.40;;
48861;SDS011;34681;49.188;-0.374;2022-12-04T10:26:34;25.30;;;18.60;;
48861;SDS011;34681;49.188;-0.374;2022-12-04T10:29:05;28.30;;;18.57;;
48861;SDS011;34681;49.188;-0.374;2022-12-04T10:31:33;27.37;;;19.27;;
48861;SDS011;34681;49.188;-0.374;2022-12-04T10:34:12;22.80;;;17.80;;
48861;SDS011;34681;49.188;-0.374;2022-12-04T10:36:42;24.50;;;19.20;;
48861;SDS011;34681;49.188;-0.374;2022-12-04T10:39:21;25.50;;;18.53;;
48861;SDS011;34681;49.188;-0.374;2022-12-04T10:41:51;25.23;;;18.27;;
48861;SDS011;34681;49.188;-0.374;2022-12-04T10:44:18;30.07;;;18.70;;
48861;SDS011;34681;49.188;-0.374;2022-12-04T10:46:44;22.80;;;16.67;;
48861;SDS011;34681;49.188;-0.374;2022-12-04T10:49:23;29.63;;;19.20;;
48861;SDS011;34681;49.188;-0.374;2022-12-04T10:51:52;23.90;;;19.00;;
48861;SDS011;34681;49.188;-0.374;2022-12-04T10:54:19;25.00;;;18.13;;
48861;SDS011;34681;49.188;-0.374;2022-12-04T10:56:54;22.40;;;17.50;;
48861;SDS011;34681;49.188;-0.374;2022-12-04T10:59:21;25.00;;;18.73;;
48861;SDS011;34681;49.188;-0.374;2022-12-04T11:01:48;25.27;;;18.70;;
48861;SDS011;34681;49.188;-0.374;2022-12-04T11:04:22;25.27;;;17.43;;
48861;SDS011;34681;49.188;-0.374;2022-12-04T11:07:03;21.50;;;17.90;;
48861;SDS011;34681;49.188;-0.374;2022-12-04T11:09:31;23.53;;;17.20;;
48861;SDS011;34681;49.188;-0.374;2022-12-04T11:12:04;28.90;;;16.63;;
48861;SDS011;34681;49.188;-0.374;2022-12-04T11:14:41;24.90;;;17.63;;
48861;SDS011;34681;49.188;-0.374;2022-12-04T11:17:06;22.90;;;17.50;;
48861;SDS011;34681;49.188;-0.374;2022-12-04T11:19:33;21.60;;;16.07;;
48861;SDS011;34681;49.188;-0.374;2022-12-04T11:24:39;20.80;;;16.23;;
48861;SDS011;34681;49.188;-0.374;2022-12-04T11:27:15;21.40;;;16.90;;
48861;SDS011;34681;49.188;-0.374;2022-12-04T11:29:44;23.83;;;18.90;;
48861;SDS011;34681;49.188;-0.374;2022-12-04T11:32:19;23.60;;;18.47;;
48861;SDS011;34681;49.188;-0.374;2022-12-04T11:34:47;27.43;;;17.77;;
48861;SDS011;34681;49.188;-0.374;2022-12-04T11:37:25;25.90;;;18.70;;
48861;SDS011;34681;49.188;-0.374;2022-12-04T11:39:54;24.57;;;18.43;;
48861;SDS011;34681;49.188;-0.374;2022-12-04T11:42:23;27.60;;;18.70;;
48861;SDS011;34681;49.188;-0.374;2022-12-04T11:44:52;26.87;;;20.27;;
48861;SDS011;34681;49.188;-0.374;2022-12-04T11:47:21;24.63;;;19.53;;
48861;SDS011;34681;49.188;-0.374;2022-12-04T11:55:20;30.30;;;21.63;;
48861;SDS011;34681;49.188;-0.374;2022-12-04T12:00:38;29.30;;;21.17;;
48861;SDS011;34681;49.188;-0.374;2022-12-04T12:03:27;29.43;;;20.70;;
48861;SDS011;34681;49.188;-0.374;2022-12-04T12:09:34;28.20;;;21.17;;
48861;SDS011;34681;49.188;-0.374;2022-12-04T12:12:16;35.73;;;23.60;;
48861;SDS011;34681;49.188;-0.374;2022-12-04T12:15:05;33.40;;;22.50;;
48861;SDS011;34681;49.188;-0.374;2022-12-04T12:26:26;30.40;;;21.13;;
48861;SDS011;34681;49.188;-0.374;2022-12-04T12:31:53;25.70;;;19.97;;
48861;SDS011;34681;49.188;-0.374;2022-12-04T12:34:42;27.37;;;20.77;;
48861;SDS011;34681;49.188;-0.374;2022-12-04T12:37:12;23.73;;;18.60;;
48861;SDS011;34681;49.188;-0.374;2022-12-04T12:39:50;25.30;;;18.97;;
48861;SDS011;34681;49.188;-0.374;2022-12-04T12:42:17;24.00;;;17.80;;
48861;SDS011;34681;49.188;-0.374;2022-12-04T12:44:51;27.80;;;18.97;;
48861;SDS011;34681;49.188;-0.374;2022-12-04T12:47:25;27.10;;;19.73;;
48861;SDS011;34681;49.188;-0.374;2022-12-04T12:49:59;29.10;;;19.10;;
48861;SDS011;34681;49.188;-0.374;2022-12-04T12:52:35;26.70;;;19.93;;
48861;SDS011;34681;49.188;-0.374;2022-12-04T12:55:23;32.93;;;20.00;;
48861;SDS011;34681;49.188;-0.374;2022-12-04T13:06:23;32.13;;;21.07;;
48861;SDS011;34681;49.188;-0.374;2022-12-04T13:08:59;28.73;;;19.40;;
48861;SDS011;34681;49.188;-0.374;2022-12-04T13:11:35;30.47;;;19.03;;
48861;SDS011;34681;49.188;-0.374;2022-12-04T13:14:02;27.13;;;19.93;;
48861;SDS011;34681;49.188;-0.374;2022-12-04T13:41:24;25.07;;;19.67;;
48861;SDS011;34681;49.188;-0.374;2022-12-04T13:43:51;29.40;;;21.17;;
48861;SDS011;34681;49.188;-0.374;2022-12-04T13:46:30;31.67;;;20.97;;
48861;SDS011;34681;49.188;-0.374;2022-12-04T13:51:37;29.50;;;20.73;;
48861;SDS011;34681;49.188;-0.374;2022-12-04T13:56:36;26.67;;;21.53;;
48861;SDS011;34681;49.188;-0.374;2022-12-04T13:59:18;31.70;;;21.20;;
48861;SDS011;34681;49.188;-0.374;2022-12-04T14:02:16;30.73;;;22.07;;
48861;SDS011;34681;49.188;-0.374;2022-12-04T14:07:23;30.53;;;21.33;;
48861;SDS011;34681;49.188;-0.374;2022-12-04T14:09:52;33.87;;;22.40;;
48861;SDS011;34681;49.188;-0.374;2022-12-04T14:12:23;37.67;;;22.27;;
48861;SDS011;34681;49.188;-0.374;2022-12-04T14:14:53;30.73;;;22.00;;
48861;SDS011;34681;49.188;-0.374;2022-12-04T14:17:23;32.93;;;22.17;;
48861;SDS011;34681;49.188;-0.374;2022-12-04T14:20:04;35.37;;;23.57;;
48861;SDS011;34681;49.188;-0.374;2022-12-04T14:22:47;32.87;;;21.40;;
48861;SDS011;34681;49.188;-0.374;2022-12-04T14:27:42;35.67;;;22.43;;
48861;SDS011;34681;49.188;-0.374;2022-12-04T14:33:00;31.40;;;22.97;;
48861;SDS011;34681;49.188;-0.374;2022-12-04T14:35:32;33.60;;;24.07;;
48861;SDS011;34681;49.188;-0.374;2022-12-04T14:37:59;30.97;;;21.33;;
48861;SDS011;34681;49.188;-0.374;2022-12-04T14:40:28;34.53;;;24.27;;
48861;SDS011;34681;49.188;-0.374;2022-12-04T14:43:00;33.23;;;21.70;;
48861;SDS011;34681;49.188;-0.374;2022-12-04T14:45:42;34.50;;;21.90;;
48861;SDS011;34681;49.188;-0.374;2022-12-04T14:56:39;31.83;;;22.37;;
48861;SDS011;34681;49.188;-0.374;2022-12-04T14:59:16;29.53;;;20.20;;
48861;SDS011;34681;49.188;-0.374;2022-12-04T15:01:44;34.30;;;23.17;;
48861;SDS011;34681;49.188;-0.374;2022-12-04T15:04:14;33.50;;;21.67;;
48861;SDS011;34681;49.188;-0.374;2022-12-04T15:06:48;32.50;;;22.10;;
48861;SDS011;34681;49.188;-0.374;2022-12-04T15:09:19;26.60;;;20.20;;
48861;SDS011;34681;49.188;-0.374;2022-12-04T15:12:13;33.63;;;24.03;;
48861;SDS011;34681;49.188;-0.374;2022-12-04T15:15:22;32.80;;;23.07;;
48861;SDS011;34681;49.188;-0.374;2022-12-04T15:18:02;32.90;;;22.23;;
48861;SDS011;34681;49.188;-0.374;2022-12-04T15:20:57;39.30;;;23.30;;
48861;SDS011;34681;49.188;-0.374;2022-12-04T15:25:51;32.70;;;23.13;;
48861;SDS011;34681;49.188;-0.374;2022-12-04T15:28:35;34.37;;;23.40;;
48861;SDS011;34681;49.188;-0.374;2022-12-04T15:31:17;35.13;;;24.57;;
48861;SDS011;34681;49.188;-0.374;2022-12-04T15:33:46;37.53;;;24.73;;
48861;SDS011;34681;49.188;-0.374;2022-12-04T15:36:18;31.23;;;23.40;;
48861;SDS011;34681;49.188;-0.374;2022-12-04T15:38:54;36.40;;;24.23;;
48861;SDS011;34681;49.188;-0.374;2022-12-04T15:41:32;34.40;;;22.90;;
48861;SDS011;34681;49.188;-0.374;2022-12-04T15:43:59;34.10;;;23.20;;
48861;SDS011;34681;49.188;-0.374;2022-12-04T15:46:30;32.67;;;23.60;;
48861;SDS011;34681;49.188;-0.374;2022-12-04T15:49:04;30.67;;;21.93;;
48861;SDS011;34681;49.188;-0.374;2022-12-04T15:51:43;33.00;;;21.70;;
48861;SDS011;34681;49.188;-0.374;2022-12-04T15:54:14;34.53;;;25.07;;
48861;SDS011;34681;49.188;-0.374;2022-12-04T15:56:55;33.47;;;22.43;;
48861;SDS011;34681;49.188;-0.374;2022-12-04T15:59:25;32.23;;;21.20;;
48861;SDS011;34681;49.188;-0.374;2022-12-04T16:01:55;31.40;;;22.70;;
48861;SDS011;34681;49.188;-0.374;2022-12-04T16:04:28;31.00;;;22.27;;
48861;SDS011;34681;49.188;-0.374;2022-12-04T16:06:53;32.03;;;21.70;;
48861;SDS011;34681;49.188;-0.374;2022-12-04T16:09:23;32.43;;;22.33;;
48861;SDS011;34681;49.188;-0.374;2022-12-04T16:11:56;31.60;;;20.90;;
48861;SDS011;34681;49.188;-0.374;2022-12-04T16:14:22;29.70;;;21.77;;
48861;SDS011;34681;49.188;-0.374;2022-12-04T16:16:48;33.87;;;24.03;;
48861;SDS011;34681;49.188;-0.374;2022-12-04T16:19:37;30.67;;;21.50;;
48861;SDS011;34681;49.188;-0.374;2022-12-04T16:22:03;31.60;;;22.17;;
48861;SDS011;34681;49.188;-0.374;2022-12-04T16:24:44;28.93;;;22.07;;
48861;SDS011;34681;49.188;-0.374;2022-12-04T16:27:13;34.70;;;25.00;;
48861;SDS011;34681;49.188;-0.374;2022-12-04T16:29:41;33.80;;;22.33;;
48861;SDS011;34681;49.188;-0.374;2022-12-04T16:32:09;30.73;;;22.40;;
48861;SDS011;34681;49.188;-0.374;2022-12-04T16:34:36;33.13;;;23.27;;
48861;SDS011;34681;49.188;-0.374;2022-12-04T16:37:05;33.27;;;21.80;;
48861;SDS011;34681;49.188;-0.374;2022-12-04T16:39:44;32.77;;;23.33;;
48861;SDS011;34681;49.188;-0.374;2022-12-04T16:42:14;31.50;;;22.50;;
48861;SDS011;34681;49.188;-0.374;2022-12-04T16:44:40;36.60;;;23.27;;